PWSweather.com
Personal Weather Stations
Station Observations
JEDRZEJOW
Kielce, JedrzejowPL 28-300

KielceJedrzejowPL 28-300

Lat: 50.64416885, Lon: 20.30450058

Elevation: 790

Station Type: WH1080

Latest ConditionsUpdated 9:00:00 AM GMT+01:01 Sunday, Jun 16, 2019
Currently Today's Max Today's Min Today's Average
Temperature 78.6°F25.9°C 78.6°F25.9°C 67.1°F19.5°C 71.0°F21.7°C
Dew Point 64.0°F17.8°C 64.0°F17.8°C 57.4°F14.1°C 59.6°F15.3°C
Winds 4.9 mph W7.9 kmh W 7.6 mph -12.2 kmh - - 3.1 mph 5.0 kmh
Wind Gusts 9.2 mph14.8 kmh 19.7 mph31.7 kmh - -
Humidity 61% 72% 60% 67%
Pressure 29.98 in1015.2 mb 29.99 in1015.6 mb 29.93 in1013.5 mb -
Hour Temp Dew Point Humidity Winds Wind Gusts Pressure Precip Precip Rate Daily Precip Total
09:00 AM 78.6°F25.9°C 64.0°F17.8°C 61% 4.9 mph W7.9 kmh W 9.2 mph14.8 kmh 29.98 in1015.2 mb 0.00 in0.0 mm 0.00 in0.0 mm 0.00 in0.0 mm
08:45 AM 77.9°F25.5°C 63.4°F17.4°C 61% 4.1 mph W6.6 kmh W 7.6 mph12.2 kmh 29.98 in1015.2 mb 0.00 in0.0 mm 0.00 in0.0 mm 0.00 in0.0 mm
08:30 AM 76.8°F24.9°C 62.3°F16.8°C 61% 3.5 mph WNW5.6 kmh WNW 6.9 mph11.1 kmh 29.98 in1015.2 mb 0.00 in0.0 mm 0.00 in0.0 mm 0.00 in0.0 mm
08:15 AM 75.7°F24.3°C 62.2°F16.8°C 63% 2.7 mph WNW4.3 kmh WNW 6.9 mph11.1 kmh 29.98 in1015.2 mb 0.00 in0.0 mm 0.00 in0.0 mm 0.00 in0.0 mm
08:00 AM 74.8°F23.8°C 61.4°F16.3°C 63% 4.0 mph W6.4 kmh W 7.6 mph12.2 kmh 29.98 in1015.2 mb 0.00 in0.0 mm 0.00 in0.0 mm 0.00 in0.0 mm
07:45 AM 73.8°F23.2°C 60.8°F16.0°C 64% 2.6 mph WNW4.2 kmh WNW 5.4 mph8.7 kmh 29.98 in1015.2 mb 0.00 in0.0 mm 0.00 in0.0 mm 0.00 in0.0 mm
07:30 AM 73.0°F22.8°C 60.6°F15.9°C 65% 2.4 mph NW3.9 kmh NW 6.0 mph9.7 kmh 29.98 in1015.2 mb 0.00 in0.0 mm 0.00 in0.0 mm 0.00 in0.0 mm
07:15 AM 72.3°F22.4°C 61.6°F16.4°C 69% 2.6 mph N4.2 kmh N 5.4 mph8.7 kmh 29.98 in1015.2 mb 0.00 in0.0 mm 0.00 in0.0 mm 0.00 in0.0 mm
07:00 AM 71.6°F22.0°C 60.5°F15.8°C 68% 3.4 mph NNW5.5 kmh NNW 6.0 mph9.7 kmh 29.99 in1015.6 mb 0.00 in0.0 mm 0.00 in0.0 mm 0.00 in0.0 mm
06:45 AM 70.7°F21.5°C 60.4°F15.8°C 70% 2.7 mph NNW4.3 kmh NNW 6.0 mph9.7 kmh 29.98 in1015.2 mb 0.00 in0.0 mm 0.00 in0.0 mm 0.00 in0.0 mm
06:30 AM 69.6°F20.9°C 59.4°F15.2°C 70% 2.6 mph NW4.2 kmh NW 6.0 mph9.7 kmh 29.98 in1015.2 mb 0.00 in0.0 mm 0.00 in0.0 mm 0.00 in0.0 mm
06:15 AM 68.7°F20.4°C 58.9°F14.9°C 71% 3.7 mph W6.0 kmh W 8.3 mph13.4 kmh 29.98 in1015.2 mb 0.00 in0.0 mm 0.00 in0.0 mm 0.00 in0.0 mm
06:00 AM 68.4°F20.2°C 58.6°F14.8°C 71% 4.9 mph NW7.9 kmh NW 9.2 mph14.8 kmh 29.98 in1015.2 mb 0.00 in0.0 mm 0.00 in0.0 mm 0.00 in0.0 mm
05:45 AM 68.0°F20.0°C 58.6°F14.8°C 72% 4.1 mph WNW6.6 kmh WNW 8.3 mph13.4 kmh 29.96 in1014.6 mb 0.00 in0.0 mm 0.00 in0.0 mm 0.00 in0.0 mm
05:30 AM 67.6°F19.8°C 58.3°F14.6°C 72% 1.9 mph W3.1 kmh W 6.0 mph9.7 kmh 29.96 in1014.6 mb 0.00 in0.0 mm 0.00 in0.0 mm 0.00 in0.0 mm
05:15 AM 67.5°F19.7°C 58.1°F14.5°C 72% 1.2 mph W1.9 kmh W 3.8 mph6.1 kmh 29.95 in1014.2 mb 0.00 in0.0 mm 0.00 in0.0 mm 0.00 in0.0 mm
05:00 AM 67.1°F19.5°C 57.8°F14.3°C 72% 2.0 mph WNW3.2 kmh WNW 3.8 mph6.1 kmh 29.95 in1014.2 mb 0.00 in0.0 mm 0.00 in0.0 mm 0.00 in0.0 mm
04:45 AM 67.1°F19.5°C 57.8°F14.3°C 72% 0.1 mph NW0.2 kmh NW 1.6 mph2.6 kmh 29.95 in1014.2 mb 0.00 in0.0 mm 0.00 in0.0 mm 0.00 in0.0 mm
04:30 AM 67.1°F19.5°C 57.4°F14.1°C 71% 1.4 mph NW2.3 kmh NW 5.4 mph8.7 kmh 29.96 in1014.6 mb 0.00 in0.0 mm 0.00 in0.0 mm 0.00 in0.0 mm
04:15 AM 67.3°F19.6°C 57.6°F14.2°C 71% 3.0 mph WSW4.8 kmh WSW 7.6 mph12.2 kmh 29.95 in1014.2 mb 0.00 in0.0 mm 0.00 in0.0 mm 0.00 in0.0 mm
04:00 AM 67.5°F19.7°C 57.7°F14.3°C 71% 2.0 mph NW3.2 kmh NW 6.0 mph9.7 kmh 29.95 in1014.2 mb 0.00 in0.0 mm 0.00 in0.0 mm 0.00 in0.0 mm
03:45 AM 67.6°F19.8°C 57.9°F14.4°C 71% 2.5 mph WNW4.0 kmh WNW 4.5 mph7.2 kmh 29.95 in1014.2 mb 0.00 in0.0 mm 0.00 in0.0 mm 0.00 in0.0 mm
03:30 AM 68.2°F20.1°C 58.0°F14.4°C 70% 5.6 mph WNW9.0 kmh WNW 10.7 mph17.2 kmh 29.96 in1014.6 mb 0.00 in0.0 mm 0.00 in0.0 mm 0.00 in0.0 mm
03:15 AM 68.7°F20.4°C 58.5°F14.7°C 70% 0.7 mph NNW1.1 kmh NNW 4.5 mph7.2 kmh 29.94 in1013.9 mb 0.00 in0.0 mm 0.00 in0.0 mm 0.00 in0.0 mm
03:00 AM 69.1°F20.6°C 58.5°F14.7°C 69% 3.0 mph WNW4.8 kmh WNW 5.4 mph8.7 kmh 29.95 in1014.2 mb 0.00 in0.0 mm 0.00 in0.0 mm 0.00 in0.0 mm
02:45 AM 69.4°F20.8°C 58.4°F14.7°C 68% 3.3 mph W5.3 kmh W 5.4 mph8.7 kmh 29.95 in1014.2 mb 0.00 in0.0 mm 0.00 in0.0 mm 0.00 in0.0 mm
02:30 AM 70.0°F21.1°C 58.5°F14.7°C 67% 2.0 mph NW3.2 kmh NW 5.4 mph8.7 kmh 29.94 in1013.9 mb 0.00 in0.0 mm 0.00 in0.0 mm 0.00 in0.0 mm
02:15 AM 70.5°F21.4°C 58.6°F14.8°C 66% 1.6 mph NW2.6 kmh NW 5.4 mph8.7 kmh 29.94 in1013.9 mb 0.00 in0.0 mm 0.00 in0.0 mm 0.00 in0.0 mm
02:00 AM 70.9°F21.6°C 59.0°F15.0°C 66% 1.6 mph NW2.6 kmh NW 4.5 mph7.2 kmh 29.94 in1013.9 mb 0.00 in0.0 mm 0.00 in0.0 mm 0.00 in0.0 mm
01:45 AM 71.2°F21.8°C 59.3°F15.2°C 66% 3.1 mph WNW5.0 kmh WNW 7.6 mph12.2 kmh 29.94 in1013.9 mb 0.00 in0.0 mm 0.00 in0.0 mm 0.00 in0.0 mm
01:30 AM 71.6°F22.0°C 59.6°F15.3°C 66% 2.2 mph W3.5 kmh W 5.4 mph8.7 kmh 29.94 in1013.9 mb 0.00 in0.0 mm 0.00 in0.0 mm 0.00 in0.0 mm
01:15 AM 72.1°F22.3°C 59.7°F15.4°C 65% 1.8 mph WNW2.9 kmh WNW 5.4 mph8.7 kmh 29.94 in1013.9 mb 0.00 in0.0 mm 0.00 in0.0 mm 0.00 in0.0 mm
01:00 AM 72.7°F22.6°C 58.5°F14.7°C 61% 2.9 mph NW4.7 kmh NW 7.6 mph12.2 kmh 29.93 in1013.5 mb 0.00 in0.0 mm 0.00 in0.0 mm 0.00 in0.0 mm
12:45 AM 73.4°F23.0°C 58.7°F14.8°C 60% 4.5 mph NW7.2 kmh NW 9.8 mph15.8 kmh 29.93 in1013.5 mb 0.00 in0.0 mm 0.00 in0.0 mm 0.00 in0.0 mm
12:30 AM 73.9°F23.3°C 59.6°F15.3°C 61% 6.8 mph NW10.9 kmh NW 13.0 mph20.9 kmh 29.93 in1013.5 mb 0.00 in0.0 mm 0.00 in0.0 mm 0.00 in0.0 mm
12:15 AM 73.9°F23.3°C 61.4°F16.3°C 65% 4.8 mph WNW7.7 kmh WNW 10.7 mph17.2 kmh 29.93 in1013.5 mb 0.00 in0.0 mm 0.00 in0.0 mm 0.00 in0.0 mm
12:00 AM 73.6°F23.1°C 63.2°F17.3°C 70% 7.6 mph W12.2 kmh W 19.7 mph31.7 kmh 29.93 in1013.5 mb 0.00 in0.0 mm 0.00 in0.0 mm 0.00 in0.0 mm